Time;durP1;ratioP1;P1;durP2;ratioP2;P2;SDS_P1;SDS_P2;PMS_P1;PMS_P2;Temp;Humidity;BMP_temperature;BMP_pressure;BME280_temperature;BME280_humidity;BME280_pressure;Samples;Min_cycle;Max_cycle;Signal;HPM_P1;HPM_P2
2023/08/20 00:02:11;;;;;;;5.53;3.10;;;18.40;99.90;;;;;;5051980;28;20112;-74
2023/08/20 00:04:37;;;;;;;7.25;3.63;;;18.40;99.90;;;;;;5052673;28;20119;-75
2023/08/20 00:07:03;;;;;;;6.97;4.18;;;18.30;99.90;;;;;;5052748;28;20036;-75
2023/08/20 00:09:30;;;;;;;8.15;3.63;;;18.20;99.90;;;;;;5053068;28;20025;-74
2023/08/20 00:11:56;;;;;;;5.93;3.53;;;18.10;99.90;;;;;;5053273;28;20025;-74
2023/08/20 00:14:58;;;;;;;5.75;3.33;;;17.90;99.90;;;;;;5053514;28;20536;-75
2023/08/20 00:17:26;;;;;;;5.07;3.38;;;17.90;99.90;;;;;;5057382;28;20397;-74
2023/08/20 00:19:54;;;;;;;6.72;3.40;;;17.90;99.90;;;;;;5039012;28;20071;-74
2023/08/20 00:22:23;;;;;;;6.70;3.20;;;17.90;99.90;;;;;;5056523;28;20021;-75
2023/08/20 00:24:49;;;;;;;5.15;3.50;;;17.90;99.90;;;;;;5056273;28;20036;-74
2023/08/20 00:27:15;;;;;;;4.38;3.28;;;17.90;99.90;;;;;;5056336;28;20029;-74
2023/08/20 00:29:40;;;;;;;5.90;3.45;;;17.90;99.90;;;;;;5056309;28;20029;-74
2023/08/20 00:32:06;;;;;;;5.05;3.35;;;17.90;99.90;;;;;;5056186;28;20021;-74
2023/08/20 00:34:32;;;;;;;5.68;3.20;;;17.90;99.90;;;;;;5054857;28;20036;-74
2023/08/20 00:36:57;;;;;;;5.75;3.60;;;17.90;99.90;;;;;;5056077;28;20495;-74
2023/08/20 00:39:23;;;;;;;9.13;4.00;;;17.90;99.90;;;;;;5055899;28;20515;-74
2023/08/20 00:41:48;;;;;;;6.03;4.15;;;17.90;99.90;;;;;;5056225;28;20472;-74
2023/08/20 00:44:14;;;;;;;9.15;4.45;;;17.80;99.90;;;;;;5054637;28;20498;-74
2023/08/20 00:46:40;;;;;;;5.72;3.33;;;17.70;99.90;;;;;;5055881;28;20502;-75
2023/08/20 00:49:06;;;;;;;9.48;3.78;;;17.60;99.90;;;;;;5055675;28;20112;-74
2023/08/20 00:51:33;;;;;;;7.45;3.60;;;17.50;99.90;;;;;;5055898;28;20513;-74
2023/08/20 00:54:00;;;;;;;7.05;4.32;;;17.30;99.90;;;;;;5055599;28;20472;-74
2023/08/20 00:56:26;;;;;;;6.03;3.50;;;17.20;99.90;;;;;;5055760;28;20029;-74
2023/08/20 00:58:54;;;;;;;6.22;3.63;;;17.10;99.90;;;;;;5054277;28;20031;-74
2023/08/20 01:01:20;;;;;;;6.15;3.60;;;17.00;99.90;;;;;;5055551;28;20025;-74
2023/08/20 01:03:46;;;;;;;6.18;3.70;;;17.00;99.90;;;;;;5055658;28;20032;-74
2023/08/20 01:06:39;;;;;;;5.15;3.30;;;17.10;99.90;;;;;;5049706;28;20026;-74
2023/08/20 01:09:40;;;;;;;5.38;3.90;;;17.10;99.90;;;;;;5034335;28;20109;-74
2023/08/20 01:12:06;;;;;;;7.50;4.53;;;17.10;99.90;;;;;;5035190;28;20025;-74
2023/08/20 01:14:32;;;;;;;6.50;4.25;;;17.20;99.90;;;;;;5034666;28;20033;-74
2023/08/20 01:16:58;;;;;;;8.00;4.45;;;17.20;99.90;;;;;;5035258;28;20033;-74
2023/08/20 01:19:23;;;;;;;6.57;4.18;;;17.20;99.90;;;;;;5034322;28;20056;-74
2023/08/20 01:22:13;;;;;;;10.90;3.80;;;17.20;99.90;;;;;;5035340;28;20033;-74
2023/08/20 01:24:44;;;;;;;8.45;4.10;;;17.10;99.90;;;;;;5034110;28;20079;-74
2023/08/20 01:27:48;;;;;;;7.40;4.00;;;17.00;99.90;;;;;;5034574;28;20103;-74
2023/08/20 01:30:15;;;;;;;8.02;4.43;;;16.90;99.90;;;;;;5034235;28;20545;-74
2023/08/20 01:32:42;;;;;;;7.78;4.07;;;16.90;99.90;;;;;;5035342;28;20391;-74
2023/08/20 01:35:13;;;;;;;7.15;4.03;;;17.00;99.90;;;;;;5035612;28;20025;-74
2023/08/20 01:37:39;;;;;;;8.50;4.00;;;17.00;99.90;;;;;;5035346;28;20100;-74
2023/08/20 01:40:10;;;;;;;6.97;3.60;;;17.00;99.90;;;;;;5034590;28;20108;-73
2023/08/20 01:42:37;;;;;;;7.30;4.15;;;17.00;99.90;;;;;;5033247;28;20032;-74
2023/08/20 01:45:03;;;;;;;7.15;4.40;;;17.00;99.90;;;;;;5035042;28;20411;-74
2023/08/20 01:47:29;;;;;;;6.15;3.80;;;16.90;99.90;;;;;;5034763;28;20075;-75
2023/08/20 01:49:54;;;;;;;5.40;3.53;;;16.80;99.90;;;;;;5034749;28;20033;-75
2023/08/20 01:52:20;;;;;;;6.90;4.00;;;16.70;99.90;;;;;;5035072;28;20037;-74
2023/08/20 01:54:46;;;;;;;6.15;3.88;;;16.70;99.90;;;;;;5034831;28;20030;-74
2023/08/20 01:57:11;;;;;;;8.32;4.10;;;16.70;99.90;;;;;;5034897;28;20109;-74
2023/08/20 01:59:37;;;;;;;5.90;3.70;;;16.60;99.90;;;;;;5033501;28;20025;-74
2023/08/20 02:02:04;;;;;;;5.85;3.90;;;16.60;99.90;;;;;;5033323;28;20029;-74
2023/08/20 02:04:30;;;;;;;6.85;4.00;;;16.60;99.90;;;;;;5034610;28;20112;-74
2023/08/20 02:06:56;;;;;;;8.05;4.90;;;16.60;99.90;;;;;;5034423;28;20021;-74
2023/08/20 02:09:22;;;;;;;10.57;5.97;;;16.60;99.90;;;;;;5034277;28;20033;-74
2023/08/20 02:11:47;;;;;;;9.18;6.40;;;16.60;99.90;;;;;;5034331;28;20029;-74
2023/08/20 02:14:13;;;;;;;8.63;5.28;;;16.60;99.90;;;;;;5033029;28;20029;-74
2023/08/20 02:16:39;;;;;;;12.23;8.40;;;16.60;99.90;;;;;;5034412;28;20391;-74
2023/08/20 02:19:06;;;;;;;20.15;11.68;;;16.60;99.90;;;;;;5034190;28;20044;-74
2023/08/20 02:21:32;;;;;;;14.30;9.85;;;16.50;99.90;;;;;;5034192;28;20487;-74
2023/08/20 02:23:58;;;;;;;14.55;9.63;;;16.50;99.90;;;;;;5034104;28;20041;-75
2023/08/20 02:26:23;;;;;;;13.73;8.80;;;16.40;99.90;;;;;;5034191;28;20036;-74
2023/08/20 02:28:49;;;;;;;10.80;7.00;;;16.30;99.90;;;;;;5034302;28;20041;-74
2023/08/20 02:31:15;;;;;;;9.07;6.38;;;16.20;99.90;;;;;;5034203;28;20030;-74
2023/08/20 02:33:41;;;;;;;8.38;5.25;;;16.10;99.90;;;;;;5034036;28;20067;-74
2023/08/20 02:36:07;;;;;;;8.52;4.55;;;16.00;99.90;;;;;;5032629;28;20056;-74
2023/08/20 02:38:32;;;;;;;8.45;3.90;;;16.00;99.90;;;;;;5033843;28;20029;-74
2023/08/20 02:40:58;;;;;;;7.47;4.40;;;16.00;99.90;;;;;;5033779;28;20109;-74
2023/08/20 02:43:24;;;;;;;6.55;3.80;;;16.10;99.90;;;;;;5033811;28;20025;-74
2023/08/20 02:45:50;;;;;;;7.35;3.92;;;16.10;99.90;;;;;;5034017;28;20492;-74
2023/08/20 02:48:15;;;;;;;7.13;3.63;;;16.10;99.90;;;;;;5033660;28;20435;-75
2023/08/20 02:50:41;;;;;;;7.47;3.83;;;16.10;99.90;;;;;;5033509;28;20052;-75
2023/08/20 02:53:07;;;;;;;6.30;4.03;;;16.20;99.90;;;;;;5033631;28;20033;-74
2023/08/20 02:55:33;;;;;;;6.32;3.67;;;16.10;99.90;;;;;;5033472;28;20021;-75
2023/08/20 02:57:59;;;;;;;7.63;4.20;;;16.10;99.90;;;;;;5033667;28;20022;-74
2023/08/20 03:00:25;;;;;;;5.95;3.80;;;16.00;99.90;;;;;;5033855;28;20033;-74
2023/08/20 03:02:51;;;;;;;5.75;3.78;;;15.90;99.90;;;;;;5034235;28;20503;-74
2023/08/20 03:05:16;;;;;;;6.95;4.03;;;15.80;99.90;;;;;;5033992;28;20040;-74
2023/08/20 03:07:42;;;;;;;7.97;3.80;;;15.80;99.90;;;;;;5032733;28;20498;-74
2023/08/20 03:10:08;;;;;;;7.38;3.97;;;15.90;99.90;;;;;;5034175;28;20555;-74
2023/08/20 03:12:34;;;;;;;6.65;4.22;;;15.90;99.90;;;;;;5032847;28;20037;-74
2023/08/20 03:15:00;;;;;;;5.95;3.88;;;15.90;99.90;;;;;;5033929;28;20037;-74
2023/08/20 03:17:25;;;;;;;5.53;3.83;;;15.90;99.90;;;;;;5034020;28;20128;-74
2023/08/20 03:19:56;;;;;;;6.20;3.83;;;15.90;99.90;;;;;;5033953;28;20488;-74
2023/08/20 03:22:22;;;;;;;;;;;15.90;99.90;;;;;;5034277;28;20104;-75
2023/08/20 03:24:48;;;;;;;8.13;3.72;;;15.90;99.90;;;;;;5033943;28;20368;-74
2023/08/20 03:27:14;;;;;;;5.53;3.90;;;15.90;99.90;;;;;;5033773;28;20079;-74
2023/08/20 03:29:40;;;;;;;6.78;3.95;;;15.80;99.90;;;;;;5033525;28;20112;-74
2023/08/20 03:32:05;;;;;;;6.97;3.88;;;15.90;99.90;;;;;;5044700;28;20048;-74
2023/08/20 03:34:31;;;;;;;5.75;3.90;;;15.80;99.90;;;;;;5053292;28;20029;-74
2023/08/20 03:36:56;;;;;;;5.70;4.05;;;15.80;99.90;;;;;;5053633;28;20025;-74
2023/08/20 03:39:22;;;;;;;8.32;4.00;;;15.80;99.90;;;;;;5053195;28;20026;-74
2023/08/20 03:41:49;;;;;;;8.93;4.20;;;15.80;99.90;;;;;;5053330;28;20029;-74
2023/08/20 03:44:15;;;;;;;5.57;3.90;;;15.80;99.90;;;;;;5053001;28;20390;-74
2023/08/20 03:46:40;;;;;;;6.95;3.90;;;15.70;99.90;;;;;;5051909;28;20029;-74
2023/08/20 03:49:06;;;;;;;5.93;4.13;;;15.60;99.90;;;;;;5052875;28;20064;-74
2023/08/20 03:51:32;;;;;;;7.55;3.97;;;15.50;99.90;;;;;;5056017;28;20044;-74
2023/08/20 03:53:57;;;;;;;8.43;4.28;;;15.40;99.90;;;;;;5056960;28;20482;-74
2023/08/20 03:56:23;;;;;;;7.45;4.68;;;15.20;99.90;;;;;;5055538;28;20029;-74
2023/08/20 03:58:48;;;;;;;8.02;4.15;;;15.10;99.90;;;;;;5056717;28;20039;-74
2023/08/20 04:01:14;;;;;;;9.15;4.72;;;15.10;99.90;;;;;;5056804;28;20059;-74
2023/08/20 04:03:40;;;;;;;7.40;4.95;;;15.00;99.90;;;;;;5056745;28;20483;-74
2023/08/20 04:06:06;;;;;;;6.75;4.35;;;14.90;99.90;;;;;;5056640;28;20487;-74
2023/08/20 04:08:32;;;;;;;7.82;4.43;;;14.80;99.90;;;;;;5056613;28;20036;-74
2023/08/20 04:10:58;;;;;;;7.03;4.13;;;14.80;99.90;;;;;;5056534;28;20029;-74
2023/08/20 04:13:23;;;;;;;6.93;4.53;;;14.90;99.90;;;;;;5055246;28;20081;-74
2023/08/20 04:15:49;;;;;;;4.82;3.55;;;14.90;99.90;;;;;;5056675;28;20511;-74
2023/08/20 04:18:15;;;;;;;5.65;4.10;;;15.00;99.90;;;;;;5056504;28;20033;-74
2023/08/20 04:20:40;;;;;;;6.50;3.65;;;15.00;99.90;;;;;;5056316;28;20029;-74
2023/08/20 04:23:06;;;;;;;7.63;4.10;;;15.00;99.90;;;;;;5056371;28;20107;-74
2023/08/20 04:25:31;;;;;;;6.68;4.45;;;15.00;99.90;;;;;;5038563;28;20064;-74
2023/08/20 04:27:57;;;;;;;5.55;4.00;;;15.00;99.90;;;;;;5056864;28;20502;-74
2023/08/20 04:30:23;;;;;;;6.40;4.00;;;15.00;99.90;;;;;;5056569;28;20382;-74
2023/08/20 04:32:49;;;;;;;8.73;4.18;;;15.00;99.90;;;;;;5056572;28;20029;-74
2023/08/20 04:35:14;;;;;;;8.05;4.07;;;15.00;99.90;;;;;;5056262;28;20037;-74
2023/08/20 04:37:40;;;;;;;7.38;4.40;;;15.00;99.90;;;;;;5056677;28;20365;-74
2023/08/20 04:40:07;;;;;;;7.75;4.70;;;15.10;99.90;;;;;;5056306;28;20104;-74
2023/08/20 04:42:33;;;;;;;7.50;4.88;;;15.00;99.90;;;;;;5056054;28;20031;-74
2023/08/20 04:44:59;;;;;;;6.00;4.18;;;15.00;99.90;;;;;;5055928;28;20108;-74
2023/08/20 04:47:25;;;;;;;7.63;4.65;;;15.00;99.90;;;;;;5055888;28;20033;-75
2023/08/20 04:49:51;;;;;;;6.28;4.20;;;15.10;99.90;;;;;;5054445;28;20033;-75
2023/08/20 04:52:16;;;;;;;6.90;4.10;;;15.10;99.90;;;;;;5055824;28;20086;-74
2023/08/20 04:54:42;;;;;;;6.70;4.43;;;15.10;99.90;;;;;;5055659;28;20114;-74
2023/08/20 04:57:07;;;;;;;11.35;4.32;;;15.10;99.90;;;;;;5055744;28;20029;-74
2023/08/20 04:59:33;;;;;;;6.13;4.10;;;15.10;99.90;;;;;;5055647;28;20053;-74
2023/08/20 05:01:59;;;;;;;5.82;4.03;;;15.10;99.90;;;;;;5055540;28;20037;-74
2023/08/20 05:04:24;;;;;;;6.53;4.32;;;15.10;99.90;;;;;;5054349;28;20031;-74
2023/08/20 05:06:50;;;;;;;6.85;4.63;;;15.10;99.90;;;;;;5055508;28;20021;-74
2023/08/20 05:09:16;;;;;;;5.95;3.80;;;15.20;99.90;;;;;;5055965;28;20028;-74
2023/08/20 05:11:42;;;;;;;7.63;4.30;;;15.20;99.90;;;;;;5055415;28;20502;-73
2023/08/20 05:14:07;;;;;;;6.63;3.83;;;15.10;99.90;;;;;;5055864;28;20025;-74
2023/08/20 05:16:33;;;;;;;8.63;5.18;;;15.00;99.90;;;;;;5055251;28;20021;-74
2023/08/20 05:18:59;;;;;;;6.90;4.35;;;15.00;99.90;;;;;;5055219;28;20056;-74
2023/08/20 05:21:24;;;;;;;8.85;5.28;;;15.00;99.90;;;;;;5055301;28;20040;-74
2023/08/20 05:23:50;;;;;;;9.75;4.72;;;15.00;99.90;;;;;;5055125;28;20394;-73
2023/08/20 05:26:16;;;;;;;5.95;4.50;;;15.10;99.90;;;;;;5055142;28;20025;-73
2023/08/20 05:28:41;;;;;;;9.13;4.90;;;15.10;99.90;;;;;;5053725;28;20029;-74
2023/08/20 05:31:07;;;;;;;6.72;4.32;;;15.10;99.90;;;;;;5055345;28;20020;-74
2023/08/20 05:33:32;;;;;;;7.40;4.60;;;15.20;99.90;;;;;;5055203;28;20056;-74
2023/08/20 05:35:59;;;;;;;7.65;4.95;;;15.20;99.90;;;;;;5054889;28;20021;-74
2023/08/20 05:38:25;;;;;;;6.50;4.72;;;15.20;99.90;;;;;;5053633;28;20103;-74
2023/08/20 05:40:53;;;;;;;7.47;4.63;;;15.20;99.90;;;;;;5055072;28;20025;-74
2023/08/20 05:43:19;;;;;;;7.95;5.05;;;15.20;99.90;;;;;;5054906;28;20028;-74
2023/08/20 05:45:44;;;;;;;9.88;4.68;;;15.20;99.90;;;;;;5047826;28;20025;-74
2023/08/20 05:48:10;;;;;;;8.27;5.10;;;15.30;99.90;;;;;;5030334;28;20056;-74
2023/08/20 05:50:36;;;;;;;8.77;5.32;;;15.30;99.90;;;;;;5019646;28;20133;-74
2023/08/20 05:53:01;;;;;;;7.82;5.18;;;15.40;99.90;;;;;;5014907;28;20053;-74
2023/08/20 05:55:27;;;;;;;9.38;5.63;;;15.50;99.90;;;;;;5013608;28;20037;-74
2023/08/20 05:57:53;;;;;;;8.57;5.22;;;15.50;99.90;;;;;;5015130;28;20026;-74
2023/08/20 06:00:18;;;;;;;13.07;5.47;;;15.60;99.90;;;;;;5014749;28;20535;-75
2023/08/20 06:02:44;;;;;;;7.95;4.88;;;15.60;99.90;;;;;;5015071;28;20399;-73
2023/08/20 06:05:10;;;;;;;11.40;5.43;;;15.60;99.90;;;;;;5014777;28;20065;-73
2023/08/20 06:07:36;;;;;;;8.57;5.22;;;15.70;99.90;;;;;;5014920;28;20030;-73
2023/08/20 06:10:02;;;;;;;9.15;4.90;;;15.70;99.90;;;;;;5014766;28;20033;-73
2023/08/20 06:12:28;;;;;;;8.93;5.13;;;15.80;99.90;;;;;;5016038;28;20022;-73
2023/08/20 06:14:54;;;;;;;7.57;5.10;;;15.90;99.90;;;;;;5016202;28;20034;-73
2023/08/20 06:17:19;;;;;;;8.50;5.45;;;15.90;99.90;;;;;;5016205;28;20033;-74
2023/08/20 06:19:45;;;;;;;6.90;5.18;;;16.00;99.90;;;;;;5016834;28;20029;-74
2023/08/20 06:22:11;;;;;;;9.40;6.43;;;16.20;99.90;;;;;;5016238;28;20102;-74
2023/08/20 06:24:36;;;;;;;12.23;5.80;;;16.20;99.90;;;;;;5016838;28;20038;-74
2023/08/20 06:27:03;;;;;;;10.63;6.38;;;16.30;99.90;;;;;;5017005;28;20026;-74
2023/08/20 06:29:28;;;;;;;9.07;6.25;;;16.30;99.90;;;;;;5014734;28;20034;-74
2023/08/20 06:31:54;;;;;;;12.35;7.55;;;16.40;99.90;;;;;;5016052;28;20048;-74
2023/08/20 06:34:20;;;;;;;10.82;7.43;;;16.50;99.90;;;;;;5016378;28;20463;-73
2023/08/20 06:36:45;;;;;;;11.15;7.50;;;16.60;99.90;;;;;;5016095;28;20088;-73
2023/08/20 06:39:11;;;;;;;12.45;7.97;;;16.70;99.90;;;;;;5015570;28;20084;-73
2023/08/20 06:41:37;;;;;;;13.30;8.85;;;16.80;99.90;;;;;;5016046;28;20029;-73
2023/08/20 06:44:03;;;;;;;10.98;8.00;;;16.80;99.90;;;;;;5016203;28;20554;-73
2023/08/20 06:46:29;;;;;;;12.88;8.68;;;16.80;99.90;;;;;;5016401;28;20400;-73
2023/08/20 06:48:55;;;;;;;12.27;8.15;;;16.80;99.90;;;;;;5016551;28;20030;-74
2023/08/20 06:51:21;;;;;;;13.07;7.68;;;16.90;99.90;;;;;;5017049;28;20064;-74
2023/08/20 06:53:48;;;;;;;12.65;7.80;;;16.90;99.90;;;;;;5016920;28;20030;-74
2023/08/20 06:56:13;;;;;;;12.73;7.32;;;17.00;99.90;;;;;;5017294;28;20030;-73
2023/08/20 06:58:41;;;;;;;12.57;7.47;;;17.00;99.90;;;;;;5016706;28;20076;-73
2023/08/20 07:01:07;;;;;;;10.77;7.50;;;17.00;99.90;;;;;;5016548;28;20523;-73
2023/08/20 07:03:43;;;;;;;12.25;8.02;;;17.10;99.90;;;;;;5015767;28;20026;-73
2023/08/20 07:06:10;;;;;;;13.60;8.52;;;17.10;99.90;;;;;;5015688;28;20108;-74
2023/08/20 07:08:39;;;;;;;19.02;7.80;;;17.20;99.90;;;;;;5016050;28;20125;-73
2023/08/20 07:11:04;;;;;;;15.48;8.48;;;17.30;99.90;;;;;;5014463;28;20036;-74
2023/08/20 07:13:30;;;;;;;16.50;8.93;;;17.40;99.90;;;;;;5013625;28;20451;-74
2023/08/20 07:15:56;;;;;;;11.82;7.97;;;17.50;99.90;;;;;;5013911;28;20060;-73
2023/08/20 07:18:21;;;;;;;10.23;6.95;;;17.60;99.90;;;;;;5013899;28;20034;-74
2023/08/20 07:20:47;;;;;;;10.05;6.22;;;17.70;99.90;;;;;;5012314;28;20105;-74
2023/08/20 07:23:13;;;;;;;13.98;7.53;;;17.70;99.90;;;;;;5013879;28;20037;-74
2023/08/20 07:25:40;;;;;;;17.40;8.13;;;17.80;99.90;;;;;;5012671;28;20037;-74
2023/08/20 07:28:07;;;;;;;13.98;8.95;;;18.00;99.90;;;;;;5014224;28;20120;-73
2023/08/20 07:30:32;;;;;;;15.65;8.15;;;18.10;99.90;;;;;;5013426;28;20022;-73
2023/08/20 07:32:58;;;;;;;11.43;7.63;;;18.30;99.90;;;;;;5013502;28;20053;-73
2023/08/20 07:35:24;;;;;;;10.23;7.80;;;18.40;99.90;;;;;;5013338;28;20057;-73
2023/08/20 07:37:50;;;;;;;11.15;7.22;;;18.50;99.90;;;;;;5013365;28;20109;-73
2023/08/20 07:40:16;;;;;;;12.65;8.00;;;18.60;99.90;;;;;;5013515;28;20395;-73
2023/08/20 07:42:42;;;;;;;13.95;8.65;;;18.70;99.90;;;;;;5013428;28;20097;-73
2023/08/20 07:45:08;;;;;;;12.15;7.82;;;18.90;99.90;;;;;;5013627;28;20036;-73
2023/08/20 07:47:37;;;;;;;16.15;8.43;;;19.00;99.90;;;;;;5013331;28;20034;-73
2023/08/20 07:50:06;;;;;;;9.02;7.13;;;19.20;99.90;;;;;;5013354;28;20034;-73
2023/08/20 07:52:32;;;;;;;16.60;9.77;;;19.40;99.90;;;;;;5013371;28;20034;-73
2023/08/20 07:54:58;;;;;;;11.98;7.95;;;19.50;99.90;;;;;;5013382;28;20033;-73
2023/08/20 07:57:24;;;;;;;11.95;8.15;;;19.70;99.90;;;;;;5013301;28;20049;-73
2023/08/20 07:59:51;;;;;;;9.45;7.43;;;19.70;99.90;;;;;;5013139;28;20500;-73
2023/08/20 08:02:16;;;;;;;13.57;7.82;;;19.80;99.90;;;;;;5013228;28;20105;-73
2023/08/20 08:04:43;;;;;;;10.70;6.47;;;20.00;99.90;;;;;;5013263;28;20456;-73
2023/08/20 08:07:12;;;;;;;7.88;6.10;;;20.10;99.90;;;;;;5013444;28;20026;-73
2023/08/20 08:09:37;;;;;;;11.65;6.78;;;20.10;99.90;;;;;;5013096;28;20034;-73
2023/08/20 08:12:04;;;;;;;11.52;6.85;;;20.20;99.90;;;;;;5013394;28;20109;-73
2023/08/20 08:14:29;;;;;;;8.23;6.10;;;20.30;99.90;;;;;;5013248;28;20029;-73
2023/08/20 08:16:55;;;;;;;10.15;5.80;;;20.50;99.90;;;;;;5013154;28;20033;-74
2023/08/20 08:19:21;;;;;;;7.55;5.63;;;20.70;99.90;;;;;;5013585;28;20026;-74
2023/08/20 08:21:47;;;;;;;9.45;6.00;;;20.80;99.90;;;;;;5013186;28;20034;-74
2023/08/20 08:24:14;;;;;;;9.77;6.03;;;21.00;99.90;;;;;;5013012;28;20030;-73
2023/08/20 08:26:40;;;;;;;9.48;5.75;;;21.20;99.90;;;;;;5013040;28;20101;-73
2023/08/20 08:29:07;;;;;;;8.63;6.03;;;21.40;99.90;;;;;;5012990;28;20093;-73
2023/08/20 08:31:33;;;;;;;8.35;5.43;;;21.50;99.90;;;;;;5012982;28;20054;-74
2023/08/20 08:33:59;;;;;;;9.43;6.15;;;21.70;99.90;;;;;;5013530;28;20029;-73
2023/08/20 08:36:25;;;;;;;8.55;5.90;;;21.90;99.90;;;;;;5014890;28;20032;-74
2023/08/20 08:38:52;;;;;;;12.55;5.95;;;22.10;99.90;;;;;;5016230;28;20352;-73
2023/08/20 08:41:21;;;;;;;7.93;5.78;;;22.20;99.90;;;;;;5015254;28;20384;-73
2023/08/20 08:43:48;;;;;;;9.70;5.63;;;22.40;99.90;;;;;;5016688;28;20022;-73
2023/08/20 08:46:14;;;;;;;10.20;5.22;;;22.50;99.90;;;;;;5016743;28;20457;-71
2023/08/20 08:48:42;;;;;;;7.32;5.40;;;22.70;99.90;;;;;;5016192;28;20033;-71
2023/08/20 08:51:08;;;;;;;11.57;5.97;;;22.80;99.90;;;;;;5016081;28;20041;-71
2023/08/20 08:53:34;;;;;;;8.05;5.38;;;23.00;99.90;;;;;;5016471;28;20041;-71
2023/08/20 08:56:00;;;;;;;8.82;5.30;;;23.10;99.90;;;;;;5015997;28;20030;-72
2023/08/20 08:58:26;;;;;;;8.75;5.05;;;23.20;99.90;;;;;;5016110;28;20467;-73
2023/08/20 09:00:53;;;;;;;7.47;4.50;;;23.30;99.90;;;;;;5015999;28;20026;-70
2023/08/20 09:03:19;;;;;;;8.52;4.70;;;23.40;99.90;;;;;;5016206;28;20026;-73
2023/08/20 09:05:49;;;;;;;8.88;4.82;;;23.50;99.90;;;;;;5015924;28;20025;-71
2023/08/20 09:08:27;;;;;;;7.80;4.73;;;23.70;99.90;;;;;;5016036;28;20033;-73
2023/08/20 09:10:56;;;;;;;8.50;4.28;;;23.80;99.90;;;;;;5015808;28;20257;-71
2023/08/20 09:13:32;;;;;;;9.18;4.43;;;24.00;99.50;;;;;;5015968;28;20030;-71
2023/08/20 09:15:58;;;;;;;7.88;4.18;;;24.10;99.30;;;;;;5015587;28;20045;-73
2023/08/20 09:18:23;;;;;;;7.70;4.00;;;24.30;99.30;;;;;;5015856;28;20381;-73
2023/08/20 09:20:50;;;;;;;9.40;4.20;;;24.40;98.80;;;;;;5015562;28;20030;-73
2023/08/20 09:23:16;;;;;;;10.65;4.65;;;24.60;98.00;;;;;;5015548;28;20026;-73
2023/08/20 09:25:43;;;;;;;8.05;4.20;;;24.70;97.50;;;;;;5016154;28;20034;-73
2023/08/20 09:28:09;;;;;;;10.43;4.50;;;24.80;97.70;;;;;;5016209;28;20053;-74
2023/08/20 09:30:35;;;;;;;8.80;3.97;;;25.00;97.50;;;;;;5014343;28;20484;-71
2023/08/20 09:33:04;;;;;;;8.68;4.00;;;25.10;97.90;;;;;;5015338;28;20480;-73
2023/08/20 09:35:30;;;;;;;9.07;4.57;;;25.20;97.10;;;;;;5015264;28;20052;-74
2023/08/20 09:38:00;;;;;;;9.75;4.53;;;25.30;95.90;;;;;;5015322;28;20120;-73
2023/08/20 09:40:26;;;;;;;7.00;4.25;;;25.40;95.70;;;;;;5015244;28;20072;-73
2023/08/20 09:42:56;;;;;;;8.50;4.38;;;25.60;95.50;;;;;;5015188;28;20030;-73
2023/08/20 09:45:25;;;;;;;6.17;4.20;;;25.80;94.90;;;;;;5016028;28;20075;-74
2023/08/20 09:47:55;;;;;;;7.53;4.10;;;25.90;93.90;;;;;;5014515;28;20631;-74
2023/08/20 09:50:22;;;;;;;10.45;4.35;;;26.10;94.00;;;;;;5015166;28;20492;-73
2023/08/20 09:53:22;;;;;;;10.35;3.50;;;26.20;93.60;;;;;;5015310;28;20033;-74
2023/08/20 09:55:51;;;;;;;8.75;3.60;;;26.40;91.90;;;;;;5011652;28;20044;-74
2023/08/20 09:58:21;;;;;;;6.43;4.18;;;26.60;91.80;;;;;;5014858;28;20029;-74
2023/08/20 10:00:49;;;;;;;7.35;4.03;;;26.70;92.20;;;;;;5014835;28;20022;-74
2023/08/20 10:03:16;;;;;;;6.53;4.03;;;26.80;91.60;;;;;;5015071;28;20022;-74
2023/08/20 10:05:42;;;;;;;10.18;4.55;;;27.00;91.90;;;;;;5014825;28;20507;-74
2023/08/20 10:08:08;;;;;;;7.60;4.10;;;27.10;91.30;;;;;;5014725;28;20030;-74
2023/08/20 10:10:34;;;;;;;6.47;4.30;;;27.20;91.80;;;;;;5014627;28;20029;-75
2023/08/20 10:13:00;;;;;;;6.53;3.78;;;27.30;90.70;;;;;;5014635;28;20030;-74
2023/08/20 10:15:28;;;;;;;10.30;4.13;;;27.40;89.90;;;;;;5014574;28;20037;-75
2023/08/20 10:17:53;;;;;;;8.13;4.28;;;27.60;89.40;;;;;;5013259;28;20030;-74
2023/08/20 10:20:19;;;;;;;6.88;3.90;;;27.70;87.10;;;;;;5014530;28;20036;-74
2023/08/20 10:22:49;;;;;;;8.15;4.03;;;27.80;86.90;;;;;;5014475;28;20034;-74
2023/08/20 10:25:24;;;;;;;8.32;3.72;;;27.90;85.90;;;;;;5014743;28;20108;-74
2023/08/20 10:27:50;;;;;;;;;;;28.00;85.90;;;;;;5014813;28;20030;-74
2023/08/20 10:30:21;;;;;;;;;;;28.20;83.80;;;;;;5014780;28;19909;-74
2023/08/20 10:32:50;;;;;;;;;;;28.30;83.00;;;;;;5015005;28;20308;-72
2023/08/20 10:35:22;;;;;;;;;;;28.40;83.10;;;;;;5014633;28;19914;-74
2023/08/20 10:38:03;;;;;;;;;;;28.50;79.90;;;;;;5014564;28;19905;-74
2023/08/20 10:40:48;;;;;;;;;;;28.60;78.80;;;;;;5014572;28;19906;-74
2023/08/20 10:43:25;;;;;;;;;;;28.70;80.80;;;;;;5014896;28;19951;-74
2023/08/20 10:46:07;;;;;;;;;;;28.80;80.70;;;;;;5014874;28;19956;-72
2023/08/20 10:48:36;;;;;;;;;;;28.90;81.70;;;;;;5014435;28;20367;-72
2023/08/20 10:51:07;;;;;;;;;;;29.10;81.40;;;;;;5014396;28;19963;-72
2023/08/20 10:53:33;;;;;;;;;;;29.20;81.30;;;;;;5014374;28;19993;-73
2023/08/20 10:56:12;;;;;;;;;;;29.30;79.60;;;;;;5014275;28;20358;-71
2023/08/20 10:58:42;;;;;;;;;;;29.40;79.80;;;;;;5014178;28;19909;-71
2023/08/20 11:01:17;;;;;;;;;;;29.50;80.20;;;;;;5012808;28;20004;-71
2023/08/20 11:03:46;;;;;;;;;;;29.60;80.80;;;;;;5014522;28;20229;-71
2023/08/20 11:06:12;;;;;;;;;;;29.70;80.20;;;;;;5014476;28;19905;-71
2023/08/20 11:08:38;;;;;;;;;;;29.80;76.60;;;;;;5014016;28;20257;-71
2023/08/20 11:11:03;;;;;;;;;;;29.90;77.50;;;;;;5014857;28;19905;-72
2023/08/20 11:13:32;;;;;;;;;;;30.00;79.00;;;;;;5013957;28;20372;-72
2023/08/20 11:15:58;;;;;;;;;;;30.10;78.10;;;;;;5014521;28;20387;-71
2023/08/20 11:18:24;;;;;;;;;;;30.20;78.00;;;;;;5033611;28;19905;-73
2023/08/20 11:20:50;;;;;;;;;;;30.40;76.00;;;;;;5032384;28;19912;-73
2023/08/20 11:23:16;;;;;;;;;;;30.50;78.10;;;;;;5032492;28;19905;-73
2023/08/20 11:25:43;;;;;;;;;;;30.60;75.60;;;;;;5033721;28;19904;-72
2023/08/20 11:28:09;;;;;;;;;;;30.60;74.20;;;;;;5033682;28;19930;-73
2023/08/20 11:30:35;;;;;;;;;;;30.70;73.20;;;;;;5033655;28;19909;-72
2023/08/20 11:33:00;;;;;;;;;;;30.80;74.00;;;;;;5034007;28;19920;-73
2023/08/20 11:35:26;;;;;;;;;;;30.90;72.40;;;;;;5033495;28;19917;-73
2023/08/20 11:37:52;;;;;;;;;;;31.00;72.50;;;;;;5031952;28;19905;-72
2023/08/20 11:40:21;;;;;;;;;;;31.20;71.60;;;;;;5033529;28;19905;-73
2023/08/20 11:42:47;;;;;;;;;;;31.30;70.80;;;;;;5033701;28;19959;-72
2023/08/20 11:45:12;;;;;;;;;;;31.50;72.00;;;;;;5029428;28;19905;-71
2023/08/20 11:47:39;;;;;;;;;;;31.60;70.70;;;;;;5004094;28;19917;-72
2023/08/20 11:50:05;;;;;;;;;;;31.60;72.90;;;;;;5013509;28;20004;-73
2023/08/20 11:52:32;;;;;;;;;;;31.80;75.00;;;;;;5019541;28;19956;-71
2023/08/20 11:54:57;;;;;;;;;;;31.90;70.40;;;;;;5013636;28;19909;-71
2023/08/20 11:57:23;;;;;;;;;;;31.90;70.20;;;;;;5013710;28;19913;-72
2023/08/20 11:59:48;;;;;;;;;;;31.90;70.80;;;;;;5013577;28;20366;-72
2023/08/20 12:02:14;;;;;;;;;;;32.00;69.00;;;;;;5015874;28;19913;-71
2023/08/20 12:04:39;;;;;;;;;;;32.00;66.50;;;;;;5024047;28;19913;-71
2023/08/20 12:07:09;;;;;;;;;;;32.00;66.80;;;;;;5024477;28;19909;-71
2023/08/20 12:09:35;;;;;;;;;;;32.10;67.80;;;;;;5032519;28;19909;-70
2023/08/20 12:12:01;;;;;;;5.00;3.37;;;32.10;66.30;;;;;;5027522;28;19913;-71
2023/08/20 12:14:26;;;;;;;;;;;32.20;67.60;;;;;;5023035;28;19913;-72
2023/08/20 12:16:55;;;;;;;;;;;32.40;68.40;;;;;;5037071;28;19905;-73
2023/08/20 12:19:21;;;;;;;;;;;32.50;66.60;;;;;;5030215;28;20400;-71
2023/08/20 12:21:47;;;;;;;;;;;32.60;60.70;;;;;;5019929;28;19948;-72
2023/08/20 12:24:12;;;;;;;;;;;32.60;60.10;;;;;;5019577;28;19916;-72
2023/08/20 12:26:39;;;;;;;;;;;32.60;59.00;;;;;;5024634;28;19921;-72
2023/08/20 12:29:04;;;;;;;;;;;32.60;60.10;;;;;;5036648;28;19905;-73
2023/08/20 12:31:30;;;;;;;;;;;32.60;64.30;;;;;;5039603;28;19974;-72
2023/08/20 12:33:56;;;;;;;;;;;32.70;58.50;;;;;;5056896;28;19915;-72
2023/08/20 12:36:21;;;;;;;;;;;32.70;60.10;;;;;;5055539;28;19912;-72
2023/08/20 12:38:47;;;;;;;;;;;32.80;58.60;;;;;;5056706;28;19909;-72
2023/08/20 12:41:13;;;;;;;;;;;32.90;60.80;;;;;;5054857;28;20019;-72
2023/08/20 12:43:38;;;;;;;;;;;33.00;58.90;;;;;;5056023;28;19979;-72
2023/08/20 12:46:04;;;;;;;;;;;33.10;58.40;;;;;;5056352;28;19908;-73
2023/08/20 12:48:29;;;;;;;;;;;33.20;55.40;;;;;;5056051;28;19908;-72
2023/08/20 12:50:55;;;;;;;;;;;33.30;57.10;;;;;;5056177;28;20327;-73
2023/08/20 12:53:21;;;;;;;;;;;33.40;57.10;;;;;;5056149;28;20359;-72
2023/08/20 12:55:46;;;;;;;;;;;33.40;56.20;;;;;;5056087;28;20432;-72
2023/08/20 12:58:12;;;;;;;;;;;33.40;57.10;;;;;;5055943;28;20286;-72
2023/08/20 13:00:38;;;;;;;;;;;33.40;57.10;;;;;;5056034;28;19909;-73